sensor_id;sensor_type;location;lat;lon;timestamp;temperature;humidity
35563;DHT22;21665;40.108;18.302;2022-08-04T00:23:32;25.00;99.90
35563;DHT22;21665;40.108;18.302;2022-08-04T00:26:08;24.90;99.90
35563;DHT22;21665;40.108;18.302;2022-08-04T00:28:38;25.00;99.90
35563;DHT22;21665;40.108;18.302;2022-08-04T00:31:44;25.00;99.90
35563;DHT22;21665;40.108;18.302;2022-08-04T00:34:23;25.00;99.90
35563;DHT22;21665;40.108;18.302;2022-08-04T00:50:57;25.00;99.90
35563;DHT22;21665;40.108;18.302;2022-08-04T01:38:29;25.00;99.90
35563;DHT22;21665;40.108;18.302;2022-08-04T01:49:36;25.00;99.90
35563;DHT22;21665;40.108;18.302;2022-08-04T01:59:00;24.90;99.90
35563;DHT22;21665;40.108;18.302;2022-08-04T02:01:48;24.90;99.90
35563;DHT22;21665;40.108;18.302;2022-08-04T02:25:27;24.80;99.90
35563;DHT22;21665;40.108;18.302;2022-08-04T02:31:18;24.80;99.90
35563;DHT22;21665;40.108;18.302;2022-08-04T02:34:08;24.80;99.90
35563;DHT22;21665;40.108;18.302;2022-08-04T02:36:42;24.70;99.90
35563;DHT22;21665;40.108;18.302;2022-08-04T02:42:23;24.70;99.90
35563;DHT22;21665;40.108;18.302;2022-08-04T02:44:57;24.70;99.90
35563;DHT22;21665;40.108;18.302;2022-08-04T02:47:30;24.70;99.90
35563;DHT22;21665;40.108;18.302;2022-08-04T05:24:27;31.20;99.90
35563;DHT22;21665;40.108;18.302;2022-08-04T05:27:00;31.10;99.90
35563;DHT22;21665;40.108;18.302;2022-08-04T05:29:45;31.10;99.90
35563;DHT22;21665;40.108;18.302;2022-08-04T05:33:02;31.40;99.90
35563;DHT22;21665;40.108;18.302;2022-08-04T05:35:51;31.70;99.90
35563;DHT22;21665;40.108;18.302;2022-08-04T05:39:18;32.20;99.90
35563;DHT22;21665;40.108;18.302;2022-08-04T05:41:58;31.90;99.90
35563;DHT22;21665;40.108;18.302;2022-08-04T05:44:31;31.40;99.90
35563;DHT22;21665;40.108;18.302;2022-08-04T05:47:15;31.60;99.90
35563;DHT22;21665;40.108;18.302;2022-08-04T05:50:03;31.90;99.90
35563;DHT22;21665;40.108;18.302;2022-08-04T05:52:55;32.10;99.90
35563;DHT22;21665;40.108;18.302;2022-08-04T05:56:00;32.20;99.90
35563;DHT22;21665;40.108;18.302;2022-08-04T05:59:21;32.00;99.90
35563;DHT22;21665;40.108;18.302;2022-08-04T06:27:51;32.60;99.90
35563;DHT22;21665;40.108;18.302;2022-08-04T06:30:21;32.70;99.90
35563;DHT22;21665;40.108;18.302;2022-08-04T06:32:55;33.10;99.90
35563;DHT22;21665;40.108;18.302;2022-08-04T06:35:23;33.40;99.90
35563;DHT22;21665;40.108;18.302;2022-08-04T06:37:52;33.40;99.90
35563;DHT22;21665;40.108;18.302;2022-08-04T06:40:23;33.50;99.90
35563;DHT22;21665;40.108;18.302;2022-08-04T06:42:51;33.70;99.90
35563;DHT22;21665;40.108;18.302;2022-08-04T06:45:19;33.50;99.90
35563;DHT22;21665;40.108;18.302;2022-08-04T06:47:48;33.50;99.90
35563;DHT22;21665;40.108;18.302;2022-08-04T06:50:15;33.60;99.90
35563;DHT22;21665;40.108;18.302;2022-08-04T06:52:43;33.90;99.90
35563;DHT22;21665;40.108;18.302;2022-08-04T06:55:11;33.80;99.90
35563;DHT22;21665;40.108;18.302;2022-08-04T06:57:40;33.20;99.90
35563;DHT22;21665;40.108;18.302;2022-08-04T07:00:12;33.60;99.90
35563;DHT22;21665;40.108;18.302;2022-08-04T07:02:52;33.70;99.90
35563;DHT22;21665;40.108;18.302;2022-08-04T07:05:20;33.80;99.90
35563;DHT22;21665;40.108;18.302;2022-08-04T07:07:48;33.90;99.90
35563;DHT22;21665;40.108;18.302;2022-08-04T07:10:16;34.10;99.90
35563;DHT22;21665;40.108;18.302;2022-08-04T07:12:48;33.80;99.90
35563;DHT22;21665;40.108;18.302;2022-08-04T07:15:19;33.80;99.90
35563;DHT22;21665;40.108;18.302;2022-08-04T07:17:48;33.90;99.90
35563;DHT22;21665;40.108;18.302;2022-08-04T07:20:16;33.90;99.90
35563;DHT22;21665;40.108;18.302;2022-08-04T07:22:48;33.80;99.90
35563;DHT22;21665;40.108;18.302;2022-08-04T07:25:17;34.30;99.90
35563;DHT22;21665;40.108;18.302;2022-08-04T07:27:46;35.00;99.90
35563;DHT22;21665;40.108;18.302;2022-08-04T07:30:14;35.10;99.90
35563;DHT22;21665;40.108;18.302;2022-08-04T07:32:42;35.40;99.90
35563;DHT22;21665;40.108;18.302;2022-08-04T07:35:13;35.10;99.90
35563;DHT22;21665;40.108;18.302;2022-08-04T07:37:42;35.10;99.90
35563;DHT22;21665;40.108;18.302;2022-08-04T07:40:08;34.70;99.90
35563;DHT22;21665;40.108;18.302;2022-08-04T07:42:43;34.50;99.90
35563;DHT22;21665;40.108;18.302;2022-08-04T07:45:17;34.60;99.90
35563;DHT22;21665;40.108;18.302;2022-08-04T07:47:45;34.80;99.90
35563;DHT22;21665;40.108;18.302;2022-08-04T07:50:12;34.70;99.90
35563;DHT22;21665;40.108;18.302;2022-08-04T07:52:43;35.10;99.90
35563;DHT22;21665;40.108;18.302;2022-08-04T07:55:27;35.30;99.90
35563;DHT22;21665;40.108;18.302;2022-08-04T07:57:54;35.50;99.90
35563;DHT22;21665;40.108;18.302;2022-08-04T08:00:20;35.50;99.90
35563;DHT22;21665;40.108;18.302;2022-08-04T08:02:51;35.40;99.90
35563;DHT22;21665;40.108;18.302;2022-08-04T08:05:23;35.10;99.90
35563;DHT22;21665;40.108;18.302;2022-08-04T08:07:50;35.00;99.90
35563;DHT22;21665;40.108;18.302;2022-08-04T08:10:17;34.60;99.90
35563;DHT22;21665;40.108;18.302;2022-08-04T08:12:44;34.30;99.90
35563;DHT22;21665;40.108;18.302;2022-08-04T08:15:32;34.30;99.90
35563;DHT22;21665;40.108;18.302;2022-08-04T08:17:59;34.20;99.90
35563;DHT22;21665;40.108;18.302;2022-08-04T08:20:30;34.60;99.90
35563;DHT22;21665;40.108;18.302;2022-08-04T08:22:58;34.20;99.90
35563;DHT22;21665;40.108;18.302;2022-08-04T08:25:29;34.00;99.90
35563;DHT22;21665;40.108;18.302;2022-08-04T08:27:58;33.70;99.90
35563;DHT22;21665;40.108;18.302;2022-08-04T08:30:25;33.90;99.90
35563;DHT22;21665;40.108;18.302;2022-08-04T08:32:51;33.90;99.90
35563;DHT22;21665;40.108;18.302;2022-08-04T08:35:19;34.00;99.90
35563;DHT22;21665;40.108;18.302;2022-08-04T08:37:53;34.60;99.90
35563;DHT22;21665;40.108;18.302;2022-08-04T08:40:43;34.70;99.90
35563;DHT22;21665;40.108;18.302;2022-08-04T08:46:18;34.20;99.90
35563;DHT22;21665;40.108;18.302;2022-08-04T08:51:52;34.60;99.90
35563;DHT22;21665;40.108;18.302;2022-08-04T09:08:14;34.40;99.90
35563;DHT22;21665;40.108;18.302;2022-08-04T09:16:54;34.90;99.90
35563;DHT22;21665;40.108;18.302;2022-08-04T09:22:44;34.90;99.90
35563;DHT22;21665;40.108;18.302;2022-08-04T09:25:25;34.60;99.90
35563;DHT22;21665;40.108;18.302;2022-08-04T09:28:01;34.20;99.90
35563;DHT22;21665;40.108;18.302;2022-08-04T09:31:14;34.30;99.90
35563;DHT22;21665;40.108;18.302;2022-08-04T09:38:44;34.10;99.90
35563;DHT22;21665;40.108;18.302;2022-08-04T09:41:39;34.00;99.90
35563;DHT22;21665;40.108;18.302;2022-08-04T09:44:30;34.00;99.90
35563;DHT22;21665;40.108;18.302;2022-08-04T09:49:52;33.20;99.90
35563;DHT22;21665;40.108;18.302;2022-08-04T09:55:22;33.60;99.90
35563;DHT22;21665;40.108;18.302;2022-08-04T10:00:48;34.00;99.90
35563;DHT22;21665;40.108;18.302;2022-08-04T10:03:18;34.10;99.90
35563;DHT22;21665;40.108;18.302;2022-08-04T10:11:20;34.00;99.90
35563;DHT22;21665;40.108;18.302;2022-08-04T10:14:09;34.00;99.90
35563;DHT22;21665;40.108;18.302;2022-08-04T10:19:37;34.00;99.90
35563;DHT22;21665;40.108;18.302;2022-08-04T10:22:25;34.20;99.90
35563;DHT22;21665;40.108;18.302;2022-08-04T10:28:05;33.40;99.90
35563;DHT22;21665;40.108;18.302;2022-08-04T10:30:37;33.70;99.90
35563;DHT22;21665;40.108;18.302;2022-08-04T10:35:48;33.70;99.90
35563;DHT22;21665;40.108;18.302;2022-08-04T10:47:10;33.40;99.90
35563;DHT22;21665;40.108;18.302;2022-08-04T10:49:46;33.40;99.90
35563;DHT22;21665;40.108;18.302;2022-08-04T10:52:56;33.40;99.90
35563;DHT22;21665;40.108;18.302;2022-08-04T11:01:34;33.70;99.90
35563;DHT22;21665;40.108;18.302;2022-08-04T11:06:51;33.10;99.90
35563;DHT22;21665;40.108;18.302;2022-08-04T11:09:18;33.10;99.90
35563;DHT22;21665;40.108;18.302;2022-08-04T11:11:52;33.60;99.90
35563;DHT22;21665;40.108;18.302;2022-08-04T11:14:23;33.80;99.90
35563;DHT22;21665;40.108;18.302;2022-08-04T11:17:00;33.50;99.90
35563;DHT22;21665;40.108;18.302;2022-08-04T11:21:59;33.60;99.90
35563;DHT22;21665;40.108;18.302;2022-08-04T11:25:06;33.50;99.90
35563;DHT22;21665;40.108;18.302;2022-08-04T11:27:50;33.50;99.90
35563;DHT22;21665;40.108;18.302;2022-08-04T11:30:19;33.60;99.90
35563;DHT22;21665;40.108;18.302;2022-08-04T11:41:21;33.60;99.90
35563;DHT22;21665;40.108;18.302;2022-08-04T11:44:10;33.80;99.90
35563;DHT22;21665;40.108;18.302;2022-08-04T11:46:42;33.90;99.90
35563;DHT22;21665;40.108;18.302;2022-08-04T11:49:33;33.50;99.90
35563;DHT22;21665;40.108;18.302;2022-08-04T11:52:02;33.80;99.90
35563;DHT22;21665;40.108;18.302;2022-08-04T11:54:32;34.00;99.90
35563;DHT22;21665;40.108;18.302;2022-08-04T11:56:59;34.10;99.90
35563;DHT22;21665;40.108;18.302;2022-08-04T11:59:26;34.10;99.90
35563;DHT22;21665;40.108;18.302;2022-08-04T12:05:02;33.70;99.90
35563;DHT22;21665;40.108;18.302;2022-08-04T12:18:37;33.60;99.90
35563;DHT22;21665;40.108;18.302;2022-08-04T12:24:00;34.20;99.90
35563;DHT22;21665;40.108;18.302;2022-08-04T12:26:31;34.20;99.90
35563;DHT22;21665;40.108;18.302;2022-08-04T12:29:00;34.00;99.90
35563;DHT22;21665;40.108;18.302;2022-08-04T12:31:28;34.00;99.90
35563;DHT22;21665;40.108;18.302;2022-08-04T12:36:55;34.10;99.90
35563;DHT22;21665;40.108;18.302;2022-08-04T12:39:25;34.00;99.90
35563;DHT22;21665;40.108;18.302;2022-08-04T12:43:25;34.10;99.90
35563;DHT22;21665;40.108;18.302;2022-08-04T12:45:18;34.20;99.90
35563;DHT22;21665;40.108;18.302;2022-08-04T12:47:49;34.10;99.90
35563;DHT22;21665;40.108;18.302;2022-08-04T12:50:17;34.10;99.90
35563;DHT22;21665;40.108;18.302;2022-08-04T12:52:50;34.10;99.90
35563;DHT22;21665;40.108;18.302;2022-08-04T12:55:17;34.20;99.90
35563;DHT22;21665;40.108;18.302;2022-08-04T12:57:46;34.30;99.90
35563;DHT22;21665;40.108;18.302;2022-08-04T13:00:23;34.30;99.90
35563;DHT22;21665;40.108;18.302;2022-08-04T13:02:50;34.40;99.90
35563;DHT22;21665;40.108;18.302;2022-08-04T13:05:20;34.20;99.90
35563;DHT22;21665;40.108;18.302;2022-08-04T13:07:49;34.00;99.90
35563;DHT22;21665;40.108;18.302;2022-08-04T13:10:21;34.10;99.90
35563;DHT22;21665;40.108;18.302;2022-08-04T13:12:58;34.00;99.90
35563;DHT22;21665;40.108;18.302;2022-08-04T13:15:27;34.10;99.90
35563;DHT22;21665;40.108;18.302;2022-08-04T13:18:04;34.20;99.90
35563;DHT22;21665;40.108;18.302;2022-08-04T13:20:37;34.10;99.90
35563;DHT22;21665;40.108;18.302;2022-08-04T13:23:08;34.20;99.90
35563;DHT22;21665;40.108;18.302;2022-08-04T13:25:39;34.20;99.90
35563;DHT22;21665;40.108;18.302;2022-08-04T13:28:18;34.20;99.90
35563;DHT22;21665;40.108;18.302;2022-08-04T13:30:48;34.10;99.90
35563;DHT22;21665;40.108;18.302;2022-08-04T13:33:19;34.00;99.90
35563;DHT22;21665;40.108;18.302;2022-08-04T13:35:46;34.00;99.90
35563;DHT22;21665;40.108;18.302;2022-08-04T13:38:16;34.20;99.90
35563;DHT22;21665;40.108;18.302;2022-08-04T13:40:43;34.30;99.90
35563;DHT22;21665;40.108;18.302;2022-08-04T13:43:40;34.20;99.90
35563;DHT22;21665;40.108;18.302;2022-08-04T13:46:07;34.10;99.90
35563;DHT22;21665;40.108;18.302;2022-08-04T13:48:37;34.40;99.90
35563;DHT22;21665;40.108;18.302;2022-08-04T13:51:04;34.50;99.90
35563;DHT22;21665;40.108;18.302;2022-08-04T13:53:36;34.50;99.90
35563;DHT22;21665;40.108;18.302;2022-08-04T13:56:05;34.20;99.90
35563;DHT22;21665;40.108;18.302;2022-08-04T13:58:33;34.20;99.90
35563;DHT22;21665;40.108;18.302;2022-08-04T14:01:06;34.10;99.90
35563;DHT22;21665;40.108;18.302;2022-08-04T14:06:58;34.20;99.90
35563;DHT22;21665;40.108;18.302;2022-08-04T14:09:31;34.30;99.90
35563;DHT22;21665;40.108;18.302;2022-08-04T14:12:06;34.30;99.90
35563;DHT22;21665;40.108;18.302;2022-08-04T14:14:36;34.30;99.90
35563;DHT22;21665;40.108;18.302;2022-08-04T14:17:11;34.30;99.90
35563;DHT22;21665;40.108;18.302;2022-08-04T14:19:56;34.40;99.90
35563;DHT22;21665;40.108;18.302;2022-08-04T14:27:23;34.30;99.90
35563;DHT22;21665;40.108;18.302;2022-08-04T14:29:50;34.40;99.90
35563;DHT22;21665;40.108;18.302;2022-08-04T14:32:16;34.40;99.90
35563;DHT22;21665;40.108;18.302;2022-08-04T14:34:44;34.30;99.90
35563;DHT22;21665;40.108;18.302;2022-08-04T14:37:13;34.30;99.90
35563;DHT22;21665;40.108;18.302;2022-08-04T14:39:42;34.20;99.90
35563;DHT22;21665;40.108;18.302;2022-08-04T14:42:08;34.20;99.90
35563;DHT22;21665;40.108;18.302;2022-08-04T14:44:54;34.40;99.90
35563;DHT22;21665;40.108;18.302;2022-08-04T14:47:40;34.20;99.90
35563;DHT22;21665;40.108;18.302;2022-08-04T14:50:08;34.30;99.90
35563;DHT22;21665;40.108;18.302;2022-08-04T14:52:35;34.30;99.90
35563;DHT22;21665;40.108;18.302;2022-08-04T14:55:19;34.20;99.90
35563;DHT22;21665;40.108;18.302;2022-08-04T14:57:47;34.10;99.90
35563;DHT22;21665;40.108;18.302;2022-08-04T15:00:24;33.70;99.90
35563;DHT22;21665;40.108;18.302;2022-08-04T15:02:51;33.70;99.90
35563;DHT22;21665;40.108;18.302;2022-08-04T15:05:19;33.70;99.90
35563;DHT22;21665;40.108;18.302;2022-08-04T15:07:46;34.00;99.90
35563;DHT22;21665;40.108;18.302;2022-08-04T15:10:13;34.20;99.90
35563;DHT22;21665;40.108;18.302;2022-08-04T15:12:40;34.20;99.90
35563;DHT22;21665;40.108;18.302;2022-08-04T15:15:07;33.90;99.90
35563;DHT22;21665;40.108;18.302;2022-08-04T15:17:33;33.90;99.90
35563;DHT22;21665;40.108;18.302;2022-08-04T15:19:59;34.00;99.90
35563;DHT22;21665;40.108;18.302;2022-08-04T15:22:26;33.60;99.50
35563;DHT22;21665;40.108;18.302;2022-08-04T15:24:53;33.40;99.90
35563;DHT22;21665;40.108;18.302;2022-08-04T15:27:23;33.60;99.90
35563;DHT22;21665;40.108;18.302;2022-08-04T15:29:50;33.60;99.90
35563;DHT22;21665;40.108;18.302;2022-08-04T15:32:18;33.70;99.90
35563;DHT22;21665;40.108;18.302;2022-08-04T15:34:49;33.70;99.90
35563;DHT22;21665;40.108;18.302;2022-08-04T15:37:28;33.70;99.90
35563;DHT22;21665;40.108;18.302;2022-08-04T15:42:48;33.80;99.90
35563;DHT22;21665;40.108;18.302;2022-08-04T15:45:25;33.90;99.90
35563;DHT22;21665;40.108;18.302;2022-08-04T15:50:31;33.70;99.90
35563;DHT22;21665;40.108;18.302;2022-08-04T15:52:58;33.70;99.90
35563;DHT22;21665;40.108;18.302;2022-08-04T15:55:37;33.60;99.90
35563;DHT22;21665;40.108;18.302;2022-08-04T15:58:08;33.40;99.90
35563;DHT22;21665;40.108;18.302;2022-08-04T16:03:44;33.20;99.90
35563;DHT22;21665;40.108;18.302;2022-08-04T16:14:07;32.90;99.30
35563;DHT22;21665;40.108;18.302;2022-08-04T16:21:57;33.00;99.30
35563;DHT22;21665;40.108;18.302;2022-08-04T16:24:40;33.00;98.10
35563;DHT22;21665;40.108;18.302;2022-08-04T16:27:09;32.90;99.00
35563;DHT22;21665;40.108;18.302;2022-08-04T16:34:57;32.70;99.90
35563;DHT22;21665;40.108;18.302;2022-08-04T16:37:38;32.60;99.90
35563;DHT22;21665;40.108;18.302;2022-08-04T16:40:35;32.50;99.90
35563;DHT22;21665;40.108;18.302;2022-08-04T16:43:16;32.30;99.90
35563;DHT22;21665;40.108;18.302;2022-08-04T16:45:48;32.20;99.90
35563;DHT22;21665;40.108;18.302;2022-08-04T16:48:34;32.10;99.90
35563;DHT22;21665;40.108;18.302;2022-08-04T16:51:04;32.10;99.90
35563;DHT22;21665;40.108;18.302;2022-08-04T16:53:44;32.00;99.90
35563;DHT22;21665;40.108;18.302;2022-08-04T16:56:12;32.00;99.90
35563;DHT22;21665;40.108;18.302;2022-08-04T16:58:44;32.00;99.90
35563;DHT22;21665;40.108;18.302;2022-08-04T17:01:14;32.10;99.90
35563;DHT22;21665;40.108;18.302;2022-08-04T17:03:50;32.00;99.90
35563;DHT22;21665;40.108;18.302;2022-08-04T17:06:17;31.90;99.90
35563;DHT22;21665;40.108;18.302;2022-08-04T17:08:46;31.70;99.90
35563;DHT22;21665;40.108;18.302;2022-08-04T17:11:15;31.60;99.90
35563;DHT22;21665;40.108;18.302;2022-08-04T17:13:46;31.60;99.90
35563;DHT22;21665;40.108;18.302;2022-08-04T17:16:16;31.50;99.90
35563;DHT22;21665;40.108;18.302;2022-08-04T17:18:47;31.40;99.90
35563;DHT22;21665;40.108;18.302;2022-08-04T17:21:25;31.30;99.90
35563;DHT22;21665;40.108;18.302;2022-08-04T17:23:57;31.20;99.90
35563;DHT22;21665;40.108;18.302;2022-08-04T17:26:26;31.20;99.90
35563;DHT22;21665;40.108;18.302;2022-08-04T17:28:53;31.10;99.90
35563;DHT22;21665;40.108;18.302;2022-08-04T17:31:22;31.10;99.90
35563;DHT22;21665;40.108;18.302;2022-08-04T17:33:53;31.00;99.90
35563;DHT22;21665;40.108;18.302;2022-08-04T17:36:26;31.00;99.90
35563;DHT22;21665;40.108;18.302;2022-08-04T17:38:56;30.90;99.90
35563;DHT22;21665;40.108;18.302;2022-08-04T17:41:29;30.90;99.90
35563;DHT22;21665;40.108;18.302;2022-08-04T17:43:58;30.80;99.90
35563;DHT22;21665;40.108;18.302;2022-08-04T17:46:40;30.70;99.90
35563;DHT22;21665;40.108;18.302;2022-08-04T17:51:44;30.50;99.90
35563;DHT22;21665;40.108;18.302;2022-08-04T17:54:35;30.50;99.90
35563;DHT22;21665;40.108;18.302;2022-08-04T17:57:19;30.40;99.90
35563;DHT22;21665;40.108;18.302;2022-08-04T17:59:53;30.30;99.90
35563;DHT22;21665;40.108;18.302;2022-08-04T18:02:25;30.20;99.90
35563;DHT22;21665;40.108;18.302;2022-08-04T18:04:53;30.20;99.90
35563;DHT22;21665;40.108;18.302;2022-08-04T18:07:39;30.10;99.90
35563;DHT22;21665;40.108;18.302;2022-08-04T18:10:07;30.00;99.90
35563;DHT22;21665;40.108;18.302;2022-08-04T18:12:35;29.80;99.90
35563;DHT22;21665;40.108;18.302;2022-08-04T18:15:19;29.80;99.90
35563;DHT22;21665;40.108;18.302;2022-08-04T18:17:47;29.70;99.90
35563;DHT22;21665;40.108;18.302;2022-08-04T18:20:18;29.60;99.90
35563;DHT22;21665;40.108;18.302;2022-08-04T18:22:47;29.50;99.90
35563;DHT22;21665;40.108;18.302;2022-08-04T18:25:18;29.40;99.90
35563;DHT22;21665;40.108;18.302;2022-08-04T18:27:54;29.30;99.90
35563;DHT22;21665;40.108;18.302;2022-08-04T18:30:23;29.20;99.90
35563;DHT22;21665;40.108;18.302;2022-08-04T18:32:50;29.20;99.90
35563;DHT22;21665;40.108;18.302;2022-08-04T18:35:19;29.10;99.90
35563;DHT22;21665;40.108;18.302;2022-08-04T18:37:45;29.00;99.90
35563;DHT22;21665;40.108;18.302;2022-08-04T18:40:12;29.00;99.90
35563;DHT22;21665;40.108;18.302;2022-08-04T18:42:39;28.90;99.90
35563;DHT22;21665;40.108;18.302;2022-08-04T18:45:06;28.80;99.90
35563;DHT22;21665;40.108;18.302;2022-08-04T18:47:34;28.70;99.90
35563;DHT22;21665;40.108;18.302;2022-08-04T18:50:01;28.60;99.90
35563;DHT22;21665;40.108;18.302;2022-08-04T18:52:27;28.60;99.90
35563;DHT22;21665;40.108;18.302;2022-08-04T18:54:54;28.50;99.90
35563;DHT22;21665;40.108;18.302;2022-08-04T18:57:23;28.40;99.90
35563;DHT22;21665;40.108;18.302;2022-08-04T18:59:50;28.40;99.90
35563;DHT22;21665;40.108;18.302;2022-08-04T19:02:17;28.40;99.90
35563;DHT22;21665;40.108;18.302;2022-08-04T19:04:46;28.30;99.90
35563;DHT22;21665;40.108;18.302;2022-08-04T19:07:14;28.40;99.90
35563;DHT22;21665;40.108;18.302;2022-08-04T19:09:42;28.30;99.90
35563;DHT22;21665;40.108;18.302;2022-08-04T19:12:09;28.20;99.90
35563;DHT22;21665;40.108;18.302;2022-08-04T19:14:37;28.10;99.90
35563;DHT22;21665;40.108;18.302;2022-08-04T19:17:03;28.10;99.90
35563;DHT22;21665;40.108;18.302;2022-08-04T19:19:30;28.00;99.90
35563;DHT22;21665;40.108;18.302;2022-08-04T19:21:57;28.00;99.90
35563;DHT22;21665;40.108;18.302;2022-08-04T19:24:23;27.90;99.90
35563;DHT22;21665;40.108;18.302;2022-08-04T19:26:49;27.80;99.90
35563;DHT22;21665;40.108;18.302;2022-08-04T19:29:16;27.80;99.90
35563;DHT22;21665;40.108;18.302;2022-08-04T19:31:43;27.80;99.90
35563;DHT22;21665;40.108;18.302;2022-08-04T19:34:10;27.80;99.90
35563;DHT22;21665;40.108;18.302;2022-08-04T19:36:37;27.70;99.90
35563;DHT22;21665;40.108;18.302;2022-08-04T19:39:07;27.60;99.90
35563;DHT22;21665;40.108;18.302;2022-08-04T19:41:34;27.50;99.90
35563;DHT22;21665;40.108;18.302;2022-08-04T19:44:05;27.40;99.90
35563;DHT22;21665;40.108;18.302;2022-08-04T19:46:32;27.30;99.90
35563;DHT22;21665;40.108;18.302;2022-08-04T19:48:59;27.30;99.90
35563;DHT22;21665;40.108;18.302;2022-08-04T19:51:29;27.20;99.90
35563;DHT22;21665;40.108;18.302;2022-08-04T19:53:58;27.10;99.90
35563;DHT22;21665;40.108;18.302;2022-08-04T19:56:24;27.00;99.90
35563;DHT22;21665;40.108;18.302;2022-08-04T19:58:50;26.70;99.90
35563;DHT22;21665;40.108;18.302;2022-08-04T20:01:17;26.50;99.90
35563;DHT22;21665;40.108;18.302;2022-08-04T20:03:44;26.30;99.90
35563;DHT22;21665;40.108;18.302;2022-08-04T20:06:11;26.30;99.90
35563;DHT22;21665;40.108;18.302;2022-08-04T20:08:38;26.30;99.90
35563;DHT22;21665;40.108;18.302;2022-08-04T20:11:07;26.30;99.90
35563;DHT22;21665;40.108;18.302;2022-08-04T20:13:35;26.30;99.90
35563;DHT22;21665;40.108;18.302;2022-08-04T20:16:01;26.30;99.90
35563;DHT22;21665;40.108;18.302;2022-08-04T20:18:28;26.30;99.90
35563;DHT22;21665;40.108;18.302;2022-08-04T20:20:54;26.20;99.90
35563;DHT22;21665;40.108;18.302;2022-08-04T20:23:21;26.10;99.90
35563;DHT22;21665;40.108;18.302;2022-08-04T20:25:47;26.10;99.90
35563;DHT22;21665;40.108;18.302;2022-08-04T22:05:28;25.70;99.90
35563;DHT22;21665;40.108;18.302;2022-08-04T22:07:55;25.70;99.90
35563;DHT22;21665;40.108;18.302;2022-08-04T22:10:24;25.80;99.90
35563;DHT22;21665;40.108;18.302;2022-08-04T22:12:51;25.80;99.90
35563;DHT22;21665;40.108;18.302;2022-08-04T22:15:17;25.70;99.90
35563;DHT22;21665;40.108;18.302;2022-08-04T22:17:44;25.70;99.90
35563;DHT22;21665;40.108;18.302;2022-08-04T22:23:23;25.70;99.90
35563;DHT22;21665;40.108;18.302;2022-08-04T22:29:04;25.60;99.90
35563;DHT22;21665;40.108;18.302;2022-08-04T22:34:21;25.50;99.90
35563;DHT22;21665;40.108;18.302;2022-08-04T22:37:43;25.50;99.90
35563;DHT22;21665;40.108;18.302;2022-08-04T22:40:16;25.30;99.90
35563;DHT22;21665;40.108;18.302;2022-08-04T22:42:43;25.30;99.90
35563;DHT22;21665;40.108;18.302;2022-08-04T22:45:12;25.30;99.90
35563;DHT22;21665;40.108;18.302;2022-08-04T22:47:42;25.30;99.90
35563;DHT22;21665;40.108;18.302;2022-08-04T22:50:08;25.30;99.90
35563;DHT22;21665;40.108;18.302;2022-08-04T22:52:35;25.20;99.90
35563;DHT22;21665;40.108;18.302;2022-08-04T22:55:02;25.10;99.90
35563;DHT22;21665;40.108;18.302;2022-08-04T22:57:28;25.00;99.90
35563;DHT22;21665;40.108;18.302;2022-08-04T22:59:55;25.10;99.90
35563;DHT22;21665;40.108;18.302;2022-08-04T23:02:22;25.00;99.90
35563;DHT22;21665;40.108;18.302;2022-08-04T23:04:48;24.90;99.90
35563;DHT22;21665;40.108;18.302;2022-08-04T23:07:15;24.90;99.90
35563;DHT22;21665;40.108;18.302;2022-08-04T23:09:45;25.00;99.90
35563;DHT22;21665;40.108;18.302;2022-08-04T23:12:12;25.10;99.90
35563;DHT22;21665;40.108;18.302;2022-08-04T23:14:45;25.10;99.90
35563;DHT22;21665;40.108;18.302;2022-08-04T23:17:15;25.20;99.90
35563;DHT22;21665;40.108;18.302;2022-08-04T23:19:45;25.20;99.90
35563;DHT22;21665;40.108;18.302;2022-08-04T23:22:41;25.30;99.90
35563;DHT22;21665;40.108;18.302;2022-08-04T23:25:29;25.30;99.90
35563;DHT22;21665;40.108;18.302;2022-08-04T23:28:13;25.20;99.90
35563;DHT22;21665;40.108;18.302;2022-08-04T23:30:57;25.00;99.90
35563;DHT22;21665;40.108;18.302;2022-08-04T23:33:27;25.00;99.90
35563;DHT22;21665;40.108;18.302;2022-08-04T23:35:54;25.00;99.90
35563;DHT22;21665;40.108;18.302;2022-08-04T23:38:30;24.90;99.90
35563;DHT22;21665;40.108;18.302;2022-08-04T23:41:10;24.90;99.90
35563;DHT22;21665;40.108;18.302;2022-08-04T23:43:49;24.90;99.90
35563;DHT22;21665;40.108;18.302;2022-08-04T23:46:25;24.80;99.90
35563;DHT22;21665;40.108;18.302;2022-08-04T23:57:02;24.60;99.90
35563;DHT22;21665;40.108;18.302;2022-08-04T23:59:38;24.60;99.90
